Time;durP1;ratioP1;P1;durP2;ratioP2;P2;SDS_P1;SDS_P2;PMS_P1;PMS_P2;Temp;Humidity;BMP_temperature;BMP_pressure;BME280_temperature;BME280_humidity;BME280_pressure;Samples;Min_cycle;Max_cycle;Signal;HPM_P1;HPM_P2
2022/09/12 00:00:44;;;;;;;;;;;;;;;17.12;74.74;101815.72;2001129;29;19935;-68
2022/09/12 00:01:47;;;;;;;;;;;;;;;17.12;74.55;101811.06;1999467;29;20425;-68
2022/09/12 00:02:51;;;;;;;;;;;;;;;17.11;74.36;101809.44;1984249;29;20031;-67
2022/09/12 00:03:54;;;;;;;;;;;;;;;17.11;74.39;101808.69;1986066;29;19933;-67
2022/09/12 00:04:57;;;;;;;;;;;;;;;17.10;74.59;101812.53;1992680;29;19928;-68
2022/09/12 00:06:00;;;;;;;;;;;;;;;17.09;74.32;101808.25;1988743;29;20366;-69
2022/09/12 00:07:02;;;;;;;;;;;;;;;17.07;74.53;101810.53;1995697;29;19985;-68
2022/09/12 00:08:07;;;;;;;;;;;;;;;17.04;74.97;101808.53;1997699;29;19932;-68
2022/09/12 00:09:12;;;;;;;;;;;;;;;17.01;74.76;101818.25;1995138;29;19933;-68
2022/09/12 00:10:14;;;;;;;;;;;;;;;17.00;74.98;101813.16;1994006;29;20539;-68
2022/09/12 00:11:18;;;;;;;;;;;;;;;16.97;75.21;101805.66;1998050;29;20023;-69
2022/09/12 00:12:20;;;;;;;;;;;;;;;16.95;75.34;101805.25;1988060;29;19929;-68
2022/09/12 00:13:23;;;;;;;;;;;;;;;16.94;75.06;101803.66;1990725;29;19936;-69
2022/09/12 00:14:26;;;;;;;;;;;;;;;16.92;75.20;101808.69;1988303;29;19929;-68
2022/09/12 00:15:29;;;;;;;;;;;;;;;16.94;75.40;101809.09;1989700;29;19929;-68
2022/09/12 00:16:32;;;;;;;;;;;;;;;16.90;75.33;101800.06;1994713;29;19936;-68
2022/09/12 00:17:36;;;;;;;;;;;;;;;16.88;75.23;101797.72;1994602;29;19936;-68
2022/09/12 00:18:39;;;;;;;;;;;;;;;16.87;75.17;101798.06;1990313;29;20007;-69
2022/09/12 00:19:42;;;;;;;;;;;;;;;16.85;75.30;101798.44;1990604;29;19929;-68
2022/09/12 00:20:45;;;;;;;;;;;;;;;16.84;75.56;101791.38;1995641;29;19979;-68
2022/09/12 00:21:49;;;;;;;;;;;;;;;16.84;75.74;101796.06;1994493;29;19936;-69
2022/09/12 00:22:51;;;;;;;;;;;;;;;16.82;75.55;101801.88;1988012;29;20467;-68
2022/09/12 00:23:56;;;;;;;;;;;;;;;16.81;75.74;101800.28;1989320;29;19925;-67
2022/09/12 00:24:59;;;;;;;;;;;;;;;16.81;75.94;101794.06;1991616;29;19925;-67
2022/09/12 00:26:04;;;;;;;;;;;;;;;16.81;75.67;101796.78;1994292;29;19990;-69
2022/09/12 00:27:07;;;;;;;;;;;;;;;16.79;75.64;101791.66;1988724;29;20028;-67
2022/09/12 00:28:11;;;;;;;;;;;;;;;16.78;75.80;101797.47;1995146;29;19924;-67
2022/09/12 00:29:15;;;;;;;;;;;;;;;16.78;75.54;101801.00;1994447;29;20428;-66
2022/09/12 00:30:18;;;;;;;;;;;;;;;16.78;75.25;101800.19;1989991;29;19988;-67
2022/09/12 00:31:22;;;;;;;;;;;;;;;16.76;75.37;101788.88;1988096;29;19929;-67
2022/09/12 00:32:26;;;;;;;;;;;;;;;16.75;75.24;101790.00;1988166;29;19932;-66
2022/09/12 00:33:28;;;;;;;;;;;;;;;16.73;75.51;101786.88;1995036;29;19947;-67
2022/09/12 00:34:32;;;;;;;;;;;;;;;16.70;75.56;101780.19;1990398;29;19929;-67
2022/09/12 00:35:39;;;;;;;;;;;;;;;16.70;75.68;101787.59;1994273;29;19925;-66
2022/09/12 00:36:42;;;;;;;;;;;;;;;16.70;75.87;101787.59;1991969;29;19936;-67
2022/09/12 00:37:45;;;;;;;;;;;;;;;16.69;75.75;101783.28;1994586;29;20364;-68
2022/09/12 00:38:50;;;;;;;;;;;;;;;16.69;75.52;101788.72;1988151;29;19929;-67
2022/09/12 00:39:54;;;;;;;;;;;;;;;16.67;75.77;101788.28;1988274;29;19929;-67
2022/09/12 00:40:57;;;;;;;;;;;;;;;16.64;76.11;101772.63;1988303;29;19933;-67
2022/09/12 00:42:00;;;;;;;;;;;;;;;16.62;75.55;101778.44;1988377;29;20385;-67
2022/09/12 00:43:04;;;;;;;;;;;;;;;16.60;75.93;101780.78;1991023;29;21824;-68
2022/09/12 00:44:21;;;;;;;;;;;;;;;16.58;76.42;101779.53;1987991;29;19944;-68
2022/09/12 00:45:27;;;;;;;;;;;;;;;16.56;76.27;101787.28;1994580;29;20274;-67
2022/09/12 00:46:35;;;;;;;;;;;;;;;16.55;76.14;101785.69;1989504;29;20267;-67
2022/09/12 00:47:37;;;;;;;;;;;;;;;16.53;75.94;101785.25;1983095;29;20097;-67
2022/09/12 00:48:42;;;;;;;;;;;;;;;16.49;76.11;101781.69;1991171;29;19930;-67
2022/09/12 00:49:46;;;;;;;;;;;;;;;16.49;76.75;101776.22;1999096;29;19924;-67
2022/09/12 00:50:50;;;;;;;;;;;;;;;16.44;76.64;101769.91;1995030;29;19925;-66
2022/09/12 00:51:55;;;;;;;;;;;;;;;16.43;76.66;101773.75;1988562;29;19929;-66
2022/09/12 00:53:03;;;;;;;;;;;;;;;16.40;76.73;101762.78;1988046;29;20404;-68
2022/09/12 00:54:07;;;;;;;;;;;;;;;16.37;77.20;101764.28;1988276;29;19932;-67
2022/09/12 00:55:13;;;;;;;;;;;;;;;16.38;76.62;101771.31;1988783;29;19925;-68
2022/09/12 00:56:17;;;;;;;;;;;;;;;16.34;76.62;101775.09;1987748;29;20309;-68
2022/09/12 00:57:22;;;;;;;;;;;;;;;16.30;77.13;101763.31;1990935;29;19964;-67
2022/09/12 00:58:25;;;;;;;;;;;;;;;16.24;77.48;101756.56;1987900;29;19925;-67
2022/09/12 00:59:32;;;;;;;;;;;;;;;16.18;78.00;101761.53;1987190;29;19939;-67
2022/09/12 01:00:34;;;;;;;;;;;;;;;16.14;77.70;101752.47;1987733;29;19932;-68
2022/09/12 01:01:39;;;;;;;;;;;;;;;16.08;78.25;101756.63;1987732;29;19932;-68
2022/09/12 01:02:43;;;;;;;;;;;;;;;16.02;77.99;101758.03;1987835;29;20435;-66
2022/09/12 01:03:46;;;;;;;;;;;;;;;16.00;78.49;101754.88;1979857;29;20386;-67
2022/09/12 01:04:48;;;;;;;;;;;;;;;15.99;78.72;101749.78;1979986;29;19929;-67
2022/09/12 01:05:56;;;;;;;;;;;;;;;15.99;78.47;101755.22;1992558;29;20737;-66
2022/09/12 01:06:58;;;;;;;;;;;;;;;16.00;78.49;101754.88;1992648;29;20438;-67
2022/09/12 01:08:02;;;;;;;;;;;;;;;16.01;78.75;101755.66;1979670;30;19968;-67
2022/09/12 01:09:04;;;;;;;;;;;;;;;16.01;78.74;101753.75;1980358;29;20091;-67
2022/09/12 01:10:08;;;;;;;;;;;;;;;16.03;78.64;101753.41;1993689;29;19933;-67
2022/09/12 01:11:12;;;;;;;;;;;;;;;16.01;78.94;101751.03;1997419;29;20424;-67
2022/09/12 01:12:15;;;;;;;;;;;;;;;15.96;78.42;101754.03;1999541;29;20325;-67
2022/09/12 01:13:17;;;;;;;;;;;;;;;15.93;78.21;101765.63;1992524;29;20506;-67
2022/09/12 01:14:20;;;;;;;;;;;;;;;15.88;79.52;101757.72;1989801;29;19925;-67
2022/09/12 01:15:22;;;;;;;;;;;;;;;15.88;79.42;101752.28;1989285;29;20374;-66
2022/09/12 01:16:24;;;;;;;;;;;;;;;15.86;79.46;101754.56;1989356;29;19924;-66
2022/09/12 01:17:30;;;;;;;;;;;;;;;15.87;79.73;101747.94;1986524;29;19929;-67
2022/09/12 01:18:39;;;;;;;;;;;;;;;15.87;79.96;101741.72;1990815;29;19936;-67
2022/09/12 01:19:56;;;;;;;;;;;;;;;15.87;79.68;101750.66;1985074;29;19929;-66
2022/09/12 01:21:07;;;;;;;;;;;;;;;15.88;79.15;101746.81;1983813;29;19936;-67
2022/09/12 01:22:15;;;;;;;;;;;;;;;15.90;79.42;101751.91;1986868;29;20381;-67
2022/09/12 01:23:33;;;;;;;;;;;;;;;15.91;78.76;101748.84;1988738;29;19928;-67
2022/09/12 01:24:45;;;;;;;;;;;;;;;15.91;79.20;101751.56;1992975;29;19932;-68
2022/09/12 01:25:58;;;;;;;;;;;;;;;15.90;79.25;101754.63;1996476;29;20337;-68
2022/09/12 01:27:21;;;;;;;;;;;;;;;15.90;79.22;101755.41;1988062;29;19973;-67
2022/09/12 01:28:34;;;;;;;;;;;;;;;15.90;79.05;101754.63;1993362;29;19929;-67
2022/09/12 01:29:57;;;;;;;;;;;;;;;15.89;79.28;101753.84;1988096;29;19940;-69
2022/09/12 01:31:05;;;;;;;;;;;;;;;15.88;79.40;101752.28;1988490;29;19925;-68
2022/09/12 01:32:09;;;;;;;;;;;;;;;15.88;78.55;101749.53;1986540;29;19936;-68
2022/09/12 01:33:27;;;;;;;;;;;;;;;15.83;79.17;101747.09;1989270;29;20105;-68
2022/09/12 01:34:32;;;;;;;;;;;;;;;15.82;78.97;101748.25;1992546;29;20081;-68
2022/09/12 01:35:43;;;;;;;;;;;;;;;15.79;79.40;101748.91;1988885;29;19932;-68
2022/09/12 01:36:51;;;;;;;;;;;;;;;15.78;79.18;101752.00;1990584;29;19925;-67
2022/09/12 01:38:01;;;;;;;;;;;;;;;15.76;79.18;101754.31;1991444;29;20370;-67
2022/09/12 01:39:04;;;;;;;;;;;;;;;15.74;79.19;101741.06;1991990;29;20254;-68
2022/09/12 01:40:14;;;;;;;;;;;;;;;15.73;79.50;101742.16;1999826;29;20401;-68
2022/09/12 01:41:23;;;;;;;;;;;;;;;15.73;79.63;101750.34;1999784;29;20062;-68
2022/09/12 01:42:28;;;;;;;;;;;;;;;15.70;79.12;101742.88;1988213;29;20394;-68
2022/09/12 01:43:34;;;;;;;;;;;;;;;15.68;79.10;101747.88;1988154;29;19925;-68
2022/09/12 01:44:39;;;;;;;;;;;;;;;15.65;79.46;101748.59;1979851;29;19970;-66
2022/09/12 01:45:44;;;;;;;;;;;;;;;15.62;79.45;101746.56;1982190;29;19925;-68
2022/09/12 01:46:52;;;;;;;;;;;;;;;15.61;79.31;101749.66;1993542;29;19925;-67
2022/09/12 01:47:58;;;;;;;;;;;;;;;15.58;79.63;101745.72;1984750;29;19959;-68
2022/09/12 01:49:02;;;;;;;;;;;;;;;15.57;79.59;101751.50;1980759;29;19949;-67
2022/09/12 01:50:05;;;;;;;;;;;;;;;15.54;80.17;101742.09;1987724;29;19951;-66
2022/09/12 01:51:12;;;;;;;;;;;;;;;15.52;79.58;101743.59;1991371;29;19929;-68
2022/09/12 01:52:17;;;;;;;;;;;;;;;15.52;80.15;101744.41;1994055;29;19933;-67
2022/09/12 01:53:22;;;;;;;;;;;;;;;15.50;80.13;101738.50;1986461;29;19979;-68
2022/09/12 01:54:26;;;;;;;;;;;;;;;15.49;80.13;101727.97;1980217;29;19925;-68
2022/09/12 01:55:32;;;;;;;;;;;;;;;15.50;80.04;101735.78;1989955;29;20402;-66
2022/09/12 01:56:35;;;;;;;;;;;;;;;15.48;80.32;101735.34;1990206;29;19925;-66
2022/09/12 01:57:41;;;;;;;;;;;;;;;15.46;79.81;101731.41;1988418;29;20050;-67
2022/09/12 01:58:44;;;;;;;;;;;;;;;15.43;80.24;101730.16;1981171;29;19936;-67
2022/09/12 01:59:49;;;;;;;;;;;;;;;15.39;80.05;101731.22;1979698;29;20029;-67
2022/09/12 02:00:54;;;;;;;;;;;;;;;15.35;80.23;101725.66;1995436;29;19932;-68
2022/09/12 02:02:03;;;;;;;;;;;;;;;15.34;80.73;101721.34;1992512;29;20358;-67
2022/09/12 02:03:09;;;;;;;;;;;;;;;15.35;80.84;101720.19;1987756;29;20274;-66
2022/09/12 02:04:15;;;;;;;;;;;;;;;15.37;80.89;101720.66;1991851;29;20020;-67
2022/09/12 02:05:19;;;;;;;;;;;;;;;15.37;80.76;101719.84;1994434;29;19928;-68
2022/09/12 02:06:25;;;;;;;;;;;;;;;15.34;80.88;101726.78;1987490;29;19928;-67
2022/09/12 02:07:30;;;;;;;;;;;;;;;15.33;80.38;101727.16;1994000;29;19929;-67
2022/09/12 02:08:35;;;;;;;;;;;;;;;15.30;80.77;101709.56;1993415;29;19929;-68
2022/09/12 02:09:40;;;;;;;;;;;;;;;15.31;80.92;101719.34;1994019;29;19928;-68
2022/09/12 02:10:45;;;;;;;;;;;;;;;15.32;81.05;101718.19;1989665;29;20405;-68
2022/09/12 02:11:48;;;;;;;;;;;;;;;15.33;80.92;101718.97;1990771;29;19928;-66
2022/09/12 02:12:53;;;;;;;;;;;;;;;15.34;80.83;101715.91;1988020;29;19974;-67
2022/09/12 02:13:57;;;;;;;;;;;;;;;15.32;80.67;101712.75;1988793;29;19925;-66
2022/09/12 02:15:02;;;;;;;;;;;;;;;15.31;80.91;101713.09;1989003;29;19975;-67
2022/09/12 02:16:06;;;;;;;;;;;;;;;15.29;80.89;101713.44;1987774;29;20450;-68
2022/09/12 02:17:12;;;;;;;;;;;;;;;15.30;80.83;101714.25;1993316;29;19943;-67
2022/09/12 02:18:16;;;;;;;;;;;;;;;15.30;80.87;101706.84;1990619;29;20360;-68
2022/09/12 02:19:20;;;;;;;;;;;;;;;15.30;80.69;101711.53;1987639;29;19978;-68
2022/09/12 02:20:25;;;;;;;;;;;;;;;15.30;80.95;101706.84;1994379;29;19936;-68
2022/09/12 02:21:52;;;;;;;;;;;;;;;15.26;81.35;101703.28;1990625;29;20397;-68
2022/09/12 02:22:55;;;;;;;;;;;;;;;15.26;81.25;101706.00;1989902;29;19935;-68
2022/09/12 02:24:00;;;;;;;;;;;;;;;15.24;81.11;101710.97;1987511;29;20409;-66
2022/09/12 02:25:03;;;;;;;;;;;;;;;15.24;80.95;101704.78;1992285;29;20412;-68
2022/09/12 02:26:08;;;;;;;;;;;;;;;15.23;80.71;101709.41;1989826;29;19932;-67
2022/09/12 02:27:13;;;;;;;;;;;;;;;15.23;80.48;101708.63;1988907;29;19936;-67
2022/09/12 02:28:18;;;;;;;;;;;;;;;15.23;80.78;101714.84;1988478;29;19929;-67
2022/09/12 02:29:20;;;;;;;;;;;;;;;15.19;81.75;101713.97;1987909;29;20401;-67
2022/09/12 02:30:23;;;;;;;;;;;;;;;15.19;81.38;101710.47;1994797;29;19936;-66
2022/09/12 02:31:27;;;;;;;;;;;;;;;15.15;81.31;101706.84;1994432;29;19972;-67
2022/09/12 02:32:34;;;;;;;;;;;;;;;15.11;81.29;101701.31;1990966;29;19929;-67
2022/09/12 02:33:42;;;;;;;;;;;;;;;15.10;81.52;101710.63;1989503;29;20432;-66
2022/09/12 02:34:48;;;;;;;;;;;;;;;15.08;81.62;101706.69;1991286;29;19929;-66
2022/09/12 02:35:52;;;;;;;;;;;;;;;15.07;81.69;101707.81;1990539;29;19925;-66
2022/09/12 02:37:00;;;;;;;;;;;;;;;15.07;82.00;101699.66;1981473;30;20417;-67
2022/09/12 02:38:05;;;;;;;;;;;;;;;15.05;81.66;101696.50;1989431;29;19929;-66
2022/09/12 02:39:08;;;;;;;;;;;;;;;15.03;82.05;101699.56;1991907;29;19932;-68
2022/09/12 02:40:10;;;;;;;;;;;;;;;15.03;81.62;101707.75;1990069;29;19932;-67
2022/09/12 02:41:14;;;;;;;;;;;;;;;14.99;81.50;101704.91;1998292;29;20380;-67
2022/09/12 02:42:16;;;;;;;;;;;;;;;14.98;81.92;101700.59;1989741;29;19929;-67
2022/09/12 02:43:18;;;;;;;;;;;;;;;14.95;82.23;101704.03;1989687;29;20567;-67
2022/09/12 02:44:20;;;;;;;;;;;;;;;14.96;82.70;101699.38;1994890;29;19932;-67
2022/09/12 02:45:23;;;;;;;;;;;;;;;14.93;81.91;101700.88;1998352;29;19936;-68
2022/09/12 02:46:27;;;;;;;;;;;;;;;14.93;82.15;101700.09;1999829;29;19929;-68
2022/09/12 02:47:34;;;;;;;;;;;;;;;14.95;82.20;101701.31;1998460;29;19998;-67
2022/09/12 02:48:38;;;;;;;;;;;;;;;14.97;82.52;101699.03;1989941;29;20687;-67
2022/09/12 02:49:42;;;;;;;;;;;;;;;15.00;82.39;101702.97;1995651;29;19929;-67
2022/09/12 02:50:44;;;;;;;;;;;;;;;15.02;82.22;101692.53;1998305;29;19925;-67
2022/09/12 02:51:47;;;;;;;;;;;;;;;15.03;82.12;101697.63;2002797;29;20395;-66
2022/09/12 02:52:49;;;;;;;;;;;;;;;15.03;82.53;101696.84;2001818;29;19969;-68
2022/09/12 02:53:53;;;;;;;;;;;;;;;15.05;82.25;101700.00;1997162;29;20456;-68
2022/09/12 02:54:56;;;;;;;;;;;;;;;15.05;82.00;101697.28;1991032;29;19929;-67
2022/09/12 02:55:59;;;;;;;;;;;;;;;15.07;82.24;101702.38;1989724;29;19936;-67
2022/09/12 02:57:01;;;;;;;;;;;;;;;15.05;81.83;101702.72;1996250;29;19955;-67
2022/09/12 02:58:04;;;;;;;;;;;;;;;15.04;81.81;101695.72;1997580;29;19929;-68
2022/09/12 02:59:08;;;;;;;;;;;;;;;14.99;82.35;101694.03;1998569;29;19943;-67
2022/09/12 03:00:11;;;;;;;;;;;;;;;14.97;81.74;101699.03;1995356;29;19936;-67
2022/09/12 03:01:19;;;;;;;;;;;;;;;14.97;82.03;101690.06;1990044;29;19929;-67
2022/09/12 03:02:28;;;;;;;;;;;;;;;14.94;82.08;101691.56;1994826;29;20389;-68
2022/09/12 03:03:43;;;;;;;;;;;;;;;14.93;82.28;101692.72;1990682;29;20331;-68
2022/09/12 03:04:48;;;;;;;;;;;;;;;14.94;82.05;101690.78;1989547;29;19932;-67
2022/09/12 03:05:53;;;;;;;;;;;;;;;14.93;82.02;101694.66;2001402;29;20010;-68
2022/09/12 03:07:03;;;;;;;;;;;;;;;14.94;82.33;101693.50;1996253;29;20381;-68
2022/09/12 03:08:20;;;;;;;;;;;;;;;14.94;82.09;101685.34;1995401;29;19925;-67
2022/09/12 03:09:30;;;;;;;;;;;;;;;14.94;82.03;101686.13;1989927;29;19925;-68
2022/09/12 03:10:38;;;;;;;;;;;;;;;14.93;81.45;101687.28;1992920;29;19928;-69
2022/09/12 03:11:45;;;;;;;;;;;;;;;14.93;81.56;101681.03;1991090;29;19944;-68
2022/09/12 03:12:51;;;;;;;;;;;;;;;14.94;82.07;101686.13;1996831;29;20254;-68
2022/09/12 03:14:00;;;;;;;;;;;;;;;14.92;82.09;101687.63;2000815;29;19932;-68
2022/09/12 03:15:07;;;;;;;;;;;;;;;14.92;81.61;101693.06;1994019;29;19946;-67
2022/09/12 03:16:14;;;;;;;;;;;;;;;14.86;82.43;101689.00;1992817;29;19929;-68
2022/09/12 03:17:20;;;;;;;;;;;;;;;14.82;82.19;101685.41;1992154;29;19936;-68
2022/09/12 03:18:31;;;;;;;;;;;;;;;14.76;82.20;101687.59;1990875;29;19941;-67
2022/09/12 03:19:40;;;;;;;;;;;;;;;14.71;81.68;101692.50;1989518;29;19928;-67
2022/09/12 03:20:49;;;;;;;;;;;;;;;14.66;82.32;101692.75;2004509;29;19928;-68
2022/09/12 03:21:57;;;;;;;;;;;;;;;14.63;82.74;101686.09;1994315;29;20313;-67
2022/09/12 03:23:04;;;;;;;;;;;;;;;14.61;81.90;101684.84;1989743;29;20535;-69
2022/09/12 03:24:10;;;;;;;;;;;;;;;14.59;82.33;101689.81;1993367;29;19925;-67
2022/09/12 03:25:16;;;;;;;;;;;;;;;14.55;82.61;101683.50;1992711;29;19929;-67
2022/09/12 03:26:21;;;;;;;;;;;;;;;14.53;83.27;101678.41;1990590;29;19933;-68
2022/09/12 03:27:27;;;;;;;;;;;;;;;14.54;83.34;101682.72;1996468;29;20415;-68
2022/09/12 03:28:30;;;;;;;;;;;;;;;14.55;83.42;101678.88;1987325;29;19936;-68
2022/09/12 03:29:33;;;;;;;;;;;;;;;14.58;83.67;101682.81;1985934;29;19925;-67
2022/09/12 03:30:38;;;;;;;;;;;;;;;14.58;83.40;101682.81;1995355;29;19925;-67
2022/09/12 03:31:48;;;;;;;;;;;;;;;14.60;83.70;101680.53;1995295;29;19936;-67
2022/09/12 03:32:51;;;;;;;;;;;;;;;14.61;83.10;101684.84;1990518;29;20250;-66
2022/09/12 03:33:53;;;;;;;;;;;;;;;14.62;83.23;101686.41;1981409;30;19929;-66
2022/09/12 03:34:56;;;;;;;;;;;;;;;14.60;82.91;101685.97;1993179;29;19928;-67
2022/09/12 03:35:59;;;;;;;;;;;;;;;14.59;82.53;101687.91;1995092;29;19936;-68
2022/09/12 03:37:02;;;;;;;;;;;;;;;14.59;82.87;101684.38;1994080;29;19929;-68
2022/09/12 03:38:04;;;;;;;;;;;;;;;14.58;83.02;101685.53;1997157;29;19925;-68
2022/09/12 03:39:06;;;;;;;;;;;;;;;14.57;83.54;101695.59;1990834;29;19932;-67
2022/09/12 03:40:11;;;;;;;;;;;;;;;14.56;83.28;101682.34;1990973;29;19932;-68
2022/09/12 03:41:13;;;;;;;;;;;;;;;14.54;83.77;101687.38;1996219;29;19933;-67
2022/09/12 03:42:15;;;;;;;;;;;;;;;14.53;83.45;101683.06;1994437;29;19929;-68
2022/09/12 03:43:18;;;;;;;;;;;;;;;14.51;83.45;101682.59;1989745;29;19936;-67
2022/09/12 03:44:20;;;;;;;;;;;;;;;14.52;83.58;101685.00;1993035;29;19936;-67
2022/09/12 03:45:22;;;;;;;;;;;;;;;14.52;83.34;101681.47;1988396;29;19955;-67
2022/09/12 03:46:24;;;;;;;;;;;;;;;14.49;83.28;101679.47;1993299;29;19925;-67
2022/09/12 03:47:26;;;;;;;;;;;;;;;14.48;82.98;101675.16;1981069;29;19925;-67
2022/09/12 03:48:30;;;;;;;;;;;;;;;14.49;83.16;101676.75;1980365;29;19925;-67
2022/09/12 03:49:33;;;;;;;;;;;;;;;14.47;82.82;101687.16;2000524;29;19929;-67
2022/09/12 03:50:36;;;;;;;;;;;;;;;14.49;83.00;101679.47;1993676;29;20509;-67
2022/09/12 03:51:39;;;;;;;;;;;;;;;14.46;83.77;101675.50;1992309;29;19936;-68
2022/09/12 03:52:40;;;;;;;;;;;;;;;14.45;83.16;101673.13;1996658;29;20423;-68
2022/09/12 03:53:43;;;;;;;;;;;;;;;14.43;83.31;101676.19;1982098;29;19948;-68
2022/09/12 03:54:44;;;;;;;;;;;;;;;14.44;83.27;101679.69;1981454;29;20302;-68
2022/09/12 03:55:47;;;;;;;;;;;;;;;14.39;83.83;101669.88;1992386;29;19929;-68
2022/09/12 03:56:49;;;;;;;;;;;;;;;14.40;83.29;101670.66;1984956;29;20429;-68
2022/09/12 03:57:52;;;;;;;;;;;;;;;14.39;83.01;101679.94;1980283;29;20345;-68
2022/09/12 03:58:54;;;;;;;;;;;;;;;14.38;83.80;101668.28;1994722;29;19924;-66
2022/09/12 03:59:57;;;;;;;;;;;;;;;14.37;83.59;101668.63;1982498;29;19929;-67
2022/09/12 04:00:58;;;;;;;;;;;;;;;14.36;84.22;101675.19;1983193;29;20295;-67
2022/09/12 04:02:01;;;;;;;;;;;;;;;14.35;84.16;101671.69;1982636;29;20015;-67
2022/09/12 04:03:03;;;;;;;;;;;;;;;14.32;84.19;101668.88;1987587;29;20431;-68
2022/09/12 04:04:05;;;;;;;;;;;;;;;14.28;84.72;101671.50;1997809;29;20365;-67
2022/09/12 04:05:07;;;;;;;;;;;;;;;14.27;85.19;101677.28;1995544;29;19933;-68
2022/09/12 04:06:14;;;;;;;;;;;;;;;14.23;84.46;101669.00;1996957;29;20289;-68
2022/09/12 04:07:20;;;;;;;;;;;;;;;14.22;84.67;101672.81;1993460;29;20320;-66
2022/09/12 04:08:22;;;;;;;;;;;;;;;14.23;84.95;101663.56;1993361;29;19933;-67
2022/09/12 04:09:24;;;;;;;;;;;;;;;14.21;85.43;101652.25;1987255;29;19925;-67
2022/09/12 04:10:27;;;;;;;;;;;;;;;14.25;84.98;101664.03;1988268;29;19967;-67
2022/09/12 04:11:31;;;;;;;;;;;;;;;14.25;85.31;101668.69;1998295;29;19932;-67
2022/09/12 04:12:34;;;;;;;;;;;;;;;14.24;85.25;101662.44;1999880;29;20450;-66
2022/09/12 04:13:36;;;;;;;;;;;;;;;14.24;84.96;101661.66;1993276;29;19932;-67
2022/09/12 04:14:39;;;;;;;;;;;;;;;14.19;85.49;101661.88;1989221;29;19929;-67
2022/09/12 04:15:40;;;;;;;;;;;;;;;14.18;85.29;101663.78;1994437;29;19928;-67
2022/09/12 04:16:43;;;;;;;;;;;;;;;14.15;85.71;101659.06;1994943;29;19936;-68
2022/09/12 04:17:45;;;;;;;;;;;;;;;14.11;86.15;101660.09;1995306;29;20646;-66
2022/09/12 04:18:47;;;;;;;;;;;;;;;14.08;86.34;101652.63;1992450;29;20393;-67
2022/09/12 04:19:49;;;;;;;;;;;;;;;14.07;86.12;101661.91;1993321;29;19936;-67
2022/09/12 04:20:52;;;;;;;;;;;;;;;14.05;86.54;101654.09;1993769;29;20405;-67
2022/09/12 04:21:55;;;;;;;;;;;;;;;14.06;86.16;101654.91;1983797;29;19929;-67
2022/09/12 04:22:57;;;;;;;;;;;;;;;14.03;86.65;101655.59;1986250;29;19929;-67
2022/09/12 04:23:59;;;;;;;;;;;;;;;14.03;86.53;101655.59;1992970;29;19943;-67
2022/09/12 04:25:02;;;;;;;;;;;;;;;14.04;86.18;101657.16;1991886;29;19959;-67
2022/09/12 04:26:05;;;;;;;;;;;;;;;14.05;86.33;101656.81;1995365;29;20305;-68
2022/09/12 04:27:08;;;;;;;;;;;;;;;14.05;86.66;101664.19;1992136;29;19932;-67
2022/09/12 04:28:09;;;;;;;;;;;;;;;14.07;86.95;101657.25;1994999;29;19925;-67
2022/09/12 04:29:13;;;;;;;;;;;;;;;14.07;86.36;101659.19;1995346;29;19936;-67
2022/09/12 04:30:15;;;;;;;;;;;;;;;14.05;86.21;101667.66;1995363;29;19925;-67
2022/09/12 04:31:19;;;;;;;;;;;;;;;14.03;86.62;101666.44;1995263;29;19925;-67
2022/09/12 04:32:22;;;;;;;;;;;;;;;14.00;86.91;101661.72;1995353;29;19928;-68
2022/09/12 04:33:25;;;;;;;;;;;;;;;14.01;86.57;101658.66;1995077;29;19928;-67
2022/09/12 04:34:29;;;;;;;;;;;;;;;13.98;86.99;101662.06;1995120;29;19929;-67
2022/09/12 04:35:31;;;;;;;;;;;;;;;13.98;86.28;101656.63;1995615;29;19936;-67
2022/09/12 04:36:33;;;;;;;;;;;;;;;13.96;86.28;101658.06;1994956;29;19956;-67
2022/09/12 04:37:37;;;;;;;;;;;;;;;13.95;86.77;101664.66;1994705;29;20333;-67
2022/09/12 04:38:39;;;;;;;;;;;;;;;13.96;86.33;101663.50;1994603;29;19929;-67
2022/09/12 04:39:42;;;;;;;;;;;;;;;13.91;85.69;101663.75;1994672;29;20020;-67
2022/09/12 04:40:43;;;;;;;;;;;;;;;13.91;85.99;101667.25;1996491;29;20015;-67
2022/09/12 04:41:46;;;;;;;;;;;;;;;13.91;85.72;101674.59;1995601;29;20392;-67
2022/09/12 04:42:48;;;;;;;;;;;;;;;13.90;86.17;101662.16;1994810;29;19928;-67
2022/09/12 04:43:52;;;;;;;;;;;;;;;13.87;85.84;101666.38;1994926;29;19925;-67
2022/09/12 04:44:53;;;;;;;;;;;;;;;13.89;85.90;101671.47;1987752;29;19932;-67
2022/09/12 04:45:56;;;;;;;;;;;;;;;13.89;85.87;101661.38;1991274;29;19924;-67
2022/09/12 04:46:57;;;;;;;;;;;;;;;13.87;86.03;101658.22;1995476;29;19964;-67
2022/09/12 04:48:00;;;;;;;;;;;;;;;13.87;86.27;101673.72;1994667;29;19941;-66
2022/09/12 04:49:02;;;;;;;;;;;;;;;13.87;85.86;101666.38;1994162;29;20530;-67
2022/09/12 04:50:05;;;;;;;;;;;;;;;13.87;85.51;101668.28;1995465;29;19981;-67
2022/09/12 04:51:08;;;;;;;;;;;;;;;13.88;84.51;101673.38;1993935;29;19929;-67
2022/09/12 04:52:10;;;;;;;;;;;;;;;13.89;84.80;101669.50;1993686;29;19956;-67
2022/09/12 04:53:13;;;;;;;;;;;;;;;13.90;84.82;101662.97;1995427;29;20393;-67
2022/09/12 04:54:17;;;;;;;;;;;;;;;13.94;85.30;101672.00;1989080;29;19925;-66
2022/09/12 04:55:20;;;;;;;;;;;;;;;13.96;86.25;101666.22;1987953;29;20027;-66
2022/09/12 04:56:23;;;;;;;;;;;;;;;13.96;85.40;101667.03;1989682;29;19929;-67
2022/09/12 04:57:25;;;;;;;;;;;;;;;13.98;85.35;101658.53;1987711;29;19965;-67
2022/09/12 04:58:28;;;;;;;;;;;;;;;13.99;85.81;101670.97;1988982;29;19929;-68
2022/09/12 04:59:30;;;;;;;;;;;;;;;14.00;85.44;101667.13;1995304;29;19932;-67
2022/09/12 05:00:32;;;;;;;;;;;;;;;14.02;86.13;101659.41;1994967;29;20444;-67
2022/09/12 05:01:34;;;;;;;;;;;;;;;14.02;85.98;101660.22;1988187;29;20405;-67
2022/09/12 05:02:37;;;;;;;;;;;;;;;14.05;85.91;101661.47;1987729;29;20611;-68
2022/09/12 05:03:42;;;;;;;;;;;;;;;14.07;86.49;101667.31;1987828;29;20342;-67
2022/09/12 05:04:45;;;;;;;;;;;;;;;14.07;86.10;101661.91;1987901;29;19925;-67
2022/09/12 05:05:47;;;;;;;;;;;;;;;14.08;85.71;101668.94;1987795;29;19929;-68
2022/09/12 05:06:49;;;;;;;;;;;;;;;14.07;85.02;101667.31;1987659;29;19932;-68
2022/09/12 05:07:51;;;;;;;;;;;;;;;14.09;85.28;101667.78;1993070;29;19963;-68
2022/09/12 05:08:56;;;;;;;;;;;;;;;14.08;85.00;101663.50;1994800;29;20135;-68
2022/09/12 05:09:58;;;;;;;;;;;;;;;14.10;85.60;101677.50;1995221;29;19929;-68
2022/09/12 05:11:02;;;;;;;;;;;;;;;14.11;85.33;101676.38;1994726;29;19928;-67
2022/09/12 05:12:04;;;;;;;;;;;;;;;14.11;85.56;101671.72;1994739;29;19933;-68
2022/09/12 05:13:08;;;;;;;;;;;;;;;14.11;85.17;101673.66;1995212;29;19935;-67
2022/09/12 05:14:10;;;;;;;;;;;;;;;14.11;85.25;101662.81;1994750;29;20377;-68
2022/09/12 05:15:12;;;;;;;;;;;;;;;14.13;85.26;101676.84;1995138;29;19932;-68
2022/09/12 05:16:15;;;;;;;;;;;;;;;14.15;85.42;101671.84;1987507;29;19925;-67
2022/09/12 05:17:18;;;;;;;;;;;;;;;14.14;85.29;101672.97;1991004;29;19932;-68
2022/09/12 05:18:20;;;;;;;;;;;;;;;14.16;85.38;101662.56;1988284;29;20400;-68
2022/09/12 05:19:23;;;;;;;;;;;;;;;14.17;86.18;101667.66;1992152;29;20407;-68
2022/09/12 05:20:24;;;;;;;;;;;;;;;14.17;86.18;101656.00;1990110;29;19932;-68
2022/09/12 05:21:27;;;;;;;;;;;;;;;14.18;85.40;101669.22;1989225;29;19929;-68
2022/09/12 05:22:29;;;;;;;;;;;;;;;14.20;85.88;101666.16;1991778;29;20343;-67
2022/09/12 05:23:32;;;;;;;;;;;;;;;14.22;86.45;101661.97;1988269;29;19938;-68
2022/09/12 05:24:38;;;;;;;;;;;;;;;14.23;86.20;101660.03;1989348;29;19925;-68
2022/09/12 05:25:46;;;;;;;;;;;;;;;14.24;86.50;101651.56;1991719;29;20282;-68
2022/09/12 05:26:49;;;;;;;;;;;;;;;14.25;86.41;101652.38;1989163;29;19929;-68
2022/09/12 05:27:51;;;;;;;;;;;;;;;14.27;86.17;101655.56;1990484;29;19978;-68
2022/09/12 05:28:54;;;;;;;;;;;;;;;14.27;86.41;101658.25;1995212;29;20381;-67
2022/09/12 05:29:55;;;;;;;;;;;;;;;14.29;86.43;101654.06;1994630;29;19924;-67
2022/09/12 05:31:02;;;;;;;;;;;;;;;14.30;86.01;101657.56;1994754;29;19939;-68